Terminal Aerodrome Forecast
Issued by NWS

Current Version | Previous Version | Graphics & Text | Print | Product List | Glossary On
Versions: 1 2 3 4 5 6 7 8 9 10 11 12 13 14 15 16 17 18 19 20 21 22 23 24 25 26 27 28 29
000
FTUS41 KILN 150857 AAB
TAFLUK
TAF AMD
KLUK 150857Z 1509/1606 36006KT 5SM BR OVC013
     FM151300 04004KT P6SM OVC028
     FM151600 06006KT P6SM OVC040
     FM160000 07003KT P6SM VCSH SCT008 OVC040=

USA.gov is the U.S. government's official web portal to all federal, state and local government web resources and services.